Time;durP1;ratioP1;P1;durP2;ratioP2;P2;SDS_P1;SDS_P2;PMS_P1;PMS_P2;Temp;Humidity;BMP_temperature;BMP_pressure;BME280_temperature;BME280_humidity;BME280_pressure;Samples;Min_cycle;Max_cycle;Signal;HPM_P1;HPM_P2
2022/07/06 00:00:53;;;;;;;8.15;1.98;;;;;;;15.46;65.34;101931.09;5007426;28;20013;-76
2022/07/06 00:03:19;;;;;;;9.93;2.67;;;;;;;15.46;65.31;101919.34;5006803;28;20018;-76
2022/07/06 00:05:45;;;;;;;6.55;2.00;;;;;;;15.38;65.42;101917.41;5004339;28;20076;-76
2022/07/06 00:08:13;;;;;;;8.85;1.65;;;;;;;15.50;65.02;101928.03;5004155;28;20054;-76
2022/07/06 00:10:49;;;;;;;10.23;1.83;;;;;;;15.49;65.30;101929.91;5002233;28;20112;-76
2022/07/06 00:13:20;;;;;;;9.95;1.73;;;;;;;15.46;65.01;101930.25;4992803;28;20034;-76
2022/07/06 00:15:47;;;;;;;14.13;2.00;;;;;;;15.62;64.61;101932.19;5003995;28;20022;-76
2022/07/06 00:18:15;;;;;;;11.23;2.17;;;;;;;15.61;64.81;101938.66;4998161;28;20022;-75
2022/07/06 00:20:41;;;;;;;7.25;1.85;;;;;;;15.63;64.69;101936.63;5002350;28;20022;-76
2022/07/06 00:23:10;;;;;;;10.20;1.95;;;;;;;15.66;64.29;101931.72;5004591;28;20032;-76
2022/07/06 00:25:36;;;;;;;12.57;1.92;;;;;;;15.61;64.53;101930.47;5015630;28;20041;-75
2022/07/06 00:28:39;;;;;;;12.27;2.30;;;;;;;15.65;64.19;101934.63;4980561;28;20026;-75
2022/07/06 00:31:05;;;;;;;16.42;2.13;;;;;;;15.32;65.40;101934.47;4995345;28;20017;-74
2022/07/06 00:33:37;;;;;;;14.52;2.05;;;;;;;15.37;64.76;101940.25;4999203;28;20111;-75
2022/07/06 00:36:03;;;;;;;;;;;;;;;15.37;64.79;101926.59;5001478;28;20336;-75
2022/07/06 00:38:29;;;;;;;11.50;1.67;;;;;;;15.44;64.75;101933.13;4993329;28;19920;-74
2022/07/06 00:40:54;;;;;;;10.52;2.10;;;;;;;15.59;64.03;101932.53;5005792;28;20125;-75
2022/07/06 00:43:20;;;;;;;11.38;1.77;;;;;;;15.78;63.46;101929.53;4981198;28;20054;-75
2022/07/06 00:45:51;;;;;;;8.60;1.98;;;;;;;15.91;63.09;101929.91;4999340;28;20029;-75
2022/07/06 00:48:20;;;;;;;8.35;1.50;;;;;;;15.63;63.60;101923.00;4994953;28;20022;-75
2022/07/06 00:50:46;;;;;;;13.02;2.00;;;;;;;15.63;63.47;101920.25;4995749;28;20116;-75
2022/07/06 00:53:18;;;;;;;7.00;1.90;;;;;;;15.46;63.80;101930.25;4992177;28;20089;-74
2022/07/06 00:55:44;;;;;;;14.15;2.45;;;;;;;15.37;64.18;101932.06;5000696;28;20117;-76
2022/07/06 00:58:09;;;;;;;7.82;1.80;;;;;;;15.21;65.12;101932.00;4995787;28;20578;-76
2022/07/06 01:00:44;;;;;;;13.30;2.75;;;;;;;15.40;63.90;101931.75;4987042;28;20117;-76
2022/07/06 01:03:10;;;;;;;7.45;1.55;;;;;;;15.46;64.04;101925.66;4989923;28;20021;-75
2022/07/06 01:05:38;;;;;;;11.55;1.92;;;;;;;15.20;64.57;101933.88;4998946;28;20033;-76
2022/07/06 01:08:04;;;;;;;5.93;1.58;;;;;;;15.39;64.01;101930.06;4990409;28;20018;-75
2022/07/06 01:10:32;;;;;;;8.10;1.85;;;;;;;15.26;64.20;101929.66;4994528;28;20045;-75
2022/07/06 01:13:07;;;;;;;8.63;2.30;;;;;;;15.43;63.90;101916.91;4995439;28;20022;-76
2022/07/06 01:15:37;;;;;;;9.65;1.95;;;;;;;15.39;63.69;101930.06;4989267;28;20026;-77
2022/07/06 01:18:13;;;;;;;19.73;2.65;;;;;;;15.19;64.51;101925.84;4995908;28;20029;-75
2022/07/06 01:20:53;;;;;;;;;;;;;;;;;;;;;
2022/07/06 01:23:22;;;;;;;6.65;1.52;;;;;;;15.38;64.13;101928.31;5012180;28;20013;-76
2022/07/06 01:25:50;;;;;;;10.90;2.00;;;;;;;15.44;63.97;101922.19;4996703;28;20030;-75
2022/07/06 01:28:24;;;;;;;8.38;1.75;;;;;;;15.52;63.44;101917.78;5018118;28;20075;-75
2022/07/06 01:30:59;;;;;;;8.02;1.67;;;;;;;15.33;64.01;101925.25;4993417;28;20141;-76
2022/07/06 01:34:31;;;;;;;12.60;2.57;;;;;;;15.16;64.95;101918.00;4999795;28;20054;-76
2022/07/06 01:36:59;;;;;;;9.55;2.85;;;;;;;15.14;65.18;101930.94;5009261;28;20269;-76
2022/07/06 01:39:25;;;;;;;17.42;1.98;;;;;;;15.33;64.51;101918.94;4987593;28;20029;-76
2022/07/06 01:42:00;;;;;;;9.30;1.92;;;;;;;15.20;64.96;101924.84;4997678;28;20036;-76
2022/07/06 01:44:29;;;;;;;9.10;2.10;;;;;;;15.15;65.28;101917.13;5013592;28;20510;-76
2022/07/06 01:46:55;;;;;;;12.38;2.47;;;;;;;15.28;64.75;101922.16;4991107;28;20041;-75
2022/07/06 01:49:21;;;;;;;21.25;2.58;;;;;;;15.35;64.70;101915.00;4993530;28;20022;-77
2022/07/06 01:51:47;;;;;;;10.50;2.38;;;;;;;15.14;65.07;101920.03;4997581;28;20022;-76
2022/07/06 01:54:14;;;;;;;12.32;2.30;;;;;;;15.15;65.18;101900.78;5013207;28;20057;-75
2022/07/06 01:57:00;;;;;;;13.93;2.85;;;;;;;15.22;65.01;101911.03;4993830;28;20026;-76
2022/07/06 01:59:32;;;;;;;7.72;1.77;;;;;;;15.16;65.14;101915.25;4993629;28;20033;-76
2022/07/06 02:02:06;;;;;;;11.15;1.77;;;;;;;15.15;65.20;101900.78;4994013;28;20033;-76
2022/07/06 02:04:35;;;;;;;10.68;2.05;;;;;;;15.03;65.39;101917.56;5000611;28;20021;-77
2022/07/06 02:07:04;;;;;;;12.90;2.40;;;;;;;14.82;65.94;101921.53;4985392;28;20018;-76
2022/07/06 02:09:29;;;;;;;11.25;2.17;;;;;;;14.87;65.88;101913.75;4994346;28;20040;-76
2022/07/06 02:11:57;;;;;;;13.82;1.85;;;;;;;15.05;65.21;101910.06;4996980;28;20034;-76
2022/07/06 02:14:25;;;;;;;11.35;1.67;;;;;;;15.05;65.14;101915.53;4991052;28;20021;-76
2022/07/06 02:16:53;;;;;;;12.90;2.17;;;;;;;15.00;65.47;101916.03;5001328;28;20081;-76
2022/07/06 02:19:22;;;;;;;9.93;1.77;;;;;;;15.03;65.50;101914.84;5008588;28;20100;-76
2022/07/06 02:21:47;;;;;;;8.93;1.75;;;;;;;15.00;65.54;101917.91;4990211;28;20113;-77
2022/07/06 02:24:13;;;;;;;10.98;2.08;;;;;;;15.01;65.98;101931.38;4997692;28;20112;-76
2022/07/06 02:26:39;;;;;;;8.82;1.90;;;;;;;15.28;65.11;101924.88;5011385;28;20040;-76
2022/07/06 02:29:08;;;;;;;12.45;2.30;;;;;;;15.04;66.26;101930.19;4997058;28;20022;-77
2022/07/06 02:31:33;;;;;;;11.45;2.40;;;;;;;14.75;67.12;101931.38;4991297;23;20051;-76
2022/07/06 02:33:59;;;;;;;10.25;2.20;;;;;;;14.62;67.46;101925.50;4904653;29;20423;-74
2022/07/06 02:36:24;;;;;;;16.92;2.78;;;;;;;14.60;68.30;101927.50;4920153;29;20024;-75
2022/07/06 02:38:49;;;;;;;18.15;2.45;;;;;;;14.95;67.04;101925.72;4903027;29;20397;-72
2022/07/06 02:41:15;;;;;;;15.43;2.30;;;;;;;14.96;67.25;101921.97;4922975;29;20020;-74
2022/07/06 02:43:40;;;;;;;13.52;2.20;;;;;;;15.01;67.31;101922.34;4923914;29;20079;-71
2022/07/06 02:46:05;;;;;;;7.10;2.10;;;;;;;14.97;67.34;101923.69;4908339;29;20126;-72
2022/07/06 02:48:31;;;;;;;15.52;2.42;;;;;;;14.56;68.37;101915.22;4922099;29;20105;-75
2022/07/06 02:50:56;;;;;;;11.02;2.03;;;;;;;14.55;68.76;101925.28;4923811;29;20091;-72
2022/07/06 02:53:21;;;;;;;14.77;2.13;;;;;;;14.61;68.75;101918.34;4908929;29;20027;-73
2022/07/06 02:55:47;;;;;;;12.93;2.25;;;;;;;14.67;68.29;101912.25;4925125;29;20050;-74
2022/07/06 02:58:12;;;;;;;13.25;1.92;;;;;;;14.61;68.51;101918.34;4930888;29;20103;-75
2022/07/06 03:00:37;;;;;;;16.17;2.92;;;;;;;14.79;68.03;101905.50;4924527;29;20031;-73
2022/07/06 03:03:03;;;;;;;11.93;2.20;;;;;;;14.75;67.54;101909.56;4929667;29;20051;-72
2022/07/06 03:05:28;;;;;;;13.38;2.00;;;;;;;14.79;67.06;101910.94;4914116;29;20044;-75
2022/07/06 03:07:53;;;;;;;10.75;2.10;;;;;;;14.70;67.31;101911.06;4908006;29;20055;-71
2022/07/06 03:10:19;;;;;;;12.52;1.85;;;;;;;14.53;67.79;101910.06;4923732;29;20019;-74
2022/07/06 03:12:44;;;;;;;9.82;1.70;;;;;;;14.72;66.70;101915.34;4929901;29;20106;-73
2022/07/06 03:15:10;;;;;;;7.28;1.50;;;;;;;14.83;66.29;101915.06;4917469;29;20028;-71
2022/07/06 03:17:36;;;;;;;7.47;1.92;;;;;;;14.75;66.55;101917.75;4932239;29;20036;-73
2022/07/06 03:20:03;;;;;;;8.68;1.75;;;;;;;14.87;66.29;101927.38;4940284;28;20027;-71
2022/07/06 03:22:29;;;;;;;3.92;1.20;;;;;;;14.68;66.23;101919.41;4913363;29;20450;-75
2022/07/06 03:24:54;;;;;;;6.53;1.40;;;;;;;14.97;65.41;101923.69;4928617;29;20042;-73
2022/07/06 03:27:19;;;;;;;6.68;1.48;;;;;;;14.96;64.96;101930.16;4918209;29;20027;-73
2022/07/06 03:29:45;;;;;;;9.40;1.45;;;;;;;15.01;65.23;101919.63;4911948;29;20031;-77
2022/07/06 03:32:10;;;;;;;8.15;1.67;;;;;;;14.84;65.80;101927.69;4934473;29;20075;-72
2022/07/06 03:34:35;;;;;;;6.22;1.30;;;;;;;14.87;66.11;101918.34;4918227;29;20031;-73
2022/07/06 03:37:01;;;;;;;10.68;2.20;;;;;;;14.75;67.07;101931.38;4931259;28;20037;-72
2022/07/06 03:39:26;;;;;;;8.68;1.77;;;;;;;14.82;67.17;101927.00;4936336;29;20495;-73
2022/07/06 03:41:51;;;;;;;14.82;3.15;;;;;;;14.92;67.11;101932.34;4934804;29;20031;-72
2022/07/06 03:44:17;;;;;;;12.18;2.08;;;;;;;15.09;66.52;101927.84;4933921;29;20032;-73
2022/07/06 03:46:42;;;;;;;8.15;1.63;;;;;;;15.01;66.66;101919.63;4905293;29;20044;-74
2022/07/06 03:49:08;;;;;;;10.40;2.35;;;;;;;15.08;67.21;101926.13;4910773;29;20066;-71
2022/07/06 03:51:33;;;;;;;10.93;2.00;;;;;;;14.84;67.91;101927.69;4912601;29;20476;-75
2022/07/06 03:53:58;;;;;;;10.02;1.92;;;;;;;14.86;68.13;101922.06;4936313;29;20062;-72
2022/07/06 03:56:30;;;;;;;12.23;2.30;;;;;;;14.96;67.34;101932.88;4935510;29;20027;-73
2022/07/06 03:58:57;;;;;;;11.43;1.77;;;;;;;14.93;67.68;101921.28;4921476;29;20408;-74
2022/07/06 04:01:22;;;;;;;14.32;2.30;;;;;;;15.03;67.33;101933.94;4925605;29;20034;-73
2022/07/06 04:03:48;;;;;;;10.43;2.28;;;;;;;14.99;67.91;101935.28;4924865;29;20027;-73
2022/07/06 04:06:13;;;;;;;16.98;2.67;;;;;;;14.89;67.40;101928.06;4911228;29;20015;-72
2022/07/06 04:08:38;;;;;;;16.10;2.50;;;;;;;14.93;68.09;101923.13;4911107;29;20032;-72
2022/07/06 04:11:04;;;;;;;14.55;3.22;;;;;;;15.02;67.25;101933.09;4924749;29;20520;-75
2022/07/06 04:13:29;;;;;;;21.50;3.25;;;;;;;14.76;68.42;101941.28;4927734;29;20042;-73
2022/07/06 04:15:55;;;;;;;7.15;2.33;;;;;;;14.56;69.84;101947.94;4927054;29;20027;-73
2022/07/06 04:18:20;;;;;;;10.40;2.63;;;;;;;14.55;71.24;101946.22;4910431;29;20062;-72
2022/07/06 04:20:46;;;;;;;13.57;2.15;;;;;;;14.28;71.71;101950.75;4906944;29;20019;-74
2022/07/06 04:23:11;;;;;;;13.52;2.33;;;;;;;14.10;72.52;101947.16;4927117;29;20027;-75
2022/07/06 04:25:36;;;;;;;10.07;2.03;;;;;;;14.35;72.51;101935.47;4928312;29;20095;-74
2022/07/06 04:28:02;;;;;;;14.40;2.60;;;;;;;14.52;71.92;101930.19;4930432;29;20051;-73
2022/07/06 04:30:28;;;;;;;15.90;2.08;;;;;;;14.61;71.19;101929.25;4912572;29;20079;-76
2022/07/06 04:32:53;;;;;;;10.85;1.88;;;;;;;14.47;71.43;101935.25;4915409;29;20043;-74
2022/07/06 04:35:18;;;;;;;13.02;2.58;;;;;;;14.69;69.96;101937.47;4928631;29;20027;-72
2022/07/06 04:37:45;;;;;;;12.10;2.40;;;;;;;14.67;70.37;101928.59;4935002;29;20015;-76
2022/07/06 04:40:11;;;;;;;8.77;1.75;;;;;;;15.09;69.17;101933.31;4912258;29;20011;-73
2022/07/06 04:42:37;;;;;;;13.25;2.78;;;;;;;15.12;67.67;101932.97;4926953;29;20042;-76
2022/07/06 04:45:03;;;;;;;12.57;1.98;;;;;;;15.12;67.72;101932.97;4931721;29;20028;-74
2022/07/06 04:47:28;;;;;;;13.65;2.30;;;;;;;15.24;66.99;101930.81;4917953;29;20479;-74
2022/07/06 04:49:54;;;;;;;13.23;2.53;;;;;;;15.19;66.59;101928.56;4931237;28;20107;-74
2022/07/06 04:52:19;;;;;;;15.00;2.20;;;;;;;15.04;66.69;101919.28;4933932;29;20060;-72
2022/07/06 04:54:45;;;;;;;11.65;1.85;;;;;;;15.22;65.87;101921.94;4913119;29;20024;-74
2022/07/06 04:57:10;;;;;;;7.55;1.67;;;;;;;15.32;67.22;101918.09;4926233;29;20366;-73
2022/07/06 04:59:35;;;;;;;11.63;1.48;;;;;;;14.96;67.27;101919.25;4909380;29;20120;-73
2022/07/06 05:02:01;;;;;;;10.18;1.85;;;;;;;14.93;66.87;101926.75;4917042;29;20118;-75
2022/07/06 05:04:26;;;;;;;17.20;2.20;;;;;;;15.10;66.51;101926.81;4911555;29;20039;-75
2022/07/06 05:06:51;;;;;;;8.57;1.90;;;;;;;15.18;66.19;101933.16;4909227;29;20028;-77
2022/07/06 05:09:17;;;;;;;13.35;2.63;;;;;;;14.83;66.67;101934.16;4928022;29;20016;-74
2022/07/06 05:11:42;;;;;;;10.95;1.85;;;;;;;15.04;66.34;101920.13;4930491;29;20229;-75
2022/07/06 05:14:08;;;;;;;9.23;1.73;;;;;;;15.13;65.68;101940.16;4916793;29;20028;-74
2022/07/06 05:16:33;;;;;;;8.95;1.45;;;;;;;15.08;66.98;101937.91;4909381;29;20038;-74
2022/07/06 05:18:58;;;;;;;17.65;2.70;;;;;;;15.11;65.87;101937.56;4926425;29;20024;-77
2022/07/06 05:21:24;;;;;;;7.07;2.13;;;;;;;15.02;66.72;101937.69;4931225;29;20051;-74
2022/07/06 05:23:50;;;;;;;13.68;1.77;;;;;;;15.02;66.65;101932.25;4910710;29;20028;-74
2022/07/06 05:26:15;;;;;;;8.65;1.67;;;;;;;14.80;67.70;101934.50;4930356;29;20022;-74
2022/07/06 05:28:41;;;;;;;9.27;1.90;;;;;;;14.75;67.73;101947.75;4911467;29;20392;-74
2022/07/06 05:31:06;;;;;;;10.07;1.90;;;;;;;14.74;68.25;101923.38;4927276;29;20042;-75
2022/07/06 05:33:31;;;;;;;8.77;1.77;;;;;;;15.00;68.32;101929.69;4907999;29;20066;-77
2022/07/06 05:35:57;;;;;;;17.80;1.88;;;;;;;14.88;68.58;101937.28;4908729;29;20038;-74
2022/07/06 05:38:22;;;;;;;13.52;2.45;;;;;;;14.86;67.99;101936.56;4912900;29;20607;-76
2022/07/06 05:40:48;;;;;;;8.65;1.95;;;;;;;15.16;67.56;101934.34;4924230;29;20042;-76
2022/07/06 05:43:13;;;;;;;14.60;1.90;;;;;;;15.36;66.68;101930.34;4923747;29;20028;-76
2022/07/06 05:45:38;;;;;;;8.80;2.03;;;;;;;15.03;67.54;101933.94;4926442;29;20027;-74
2022/07/06 05:50:48;;;;;;;12.52;2.00;;;;;;;15.12;68.17;101943.88;4926508;29;20020;-72
2022/07/06 05:53:13;;;;;;;18.83;2.47;;;;;;;15.08;69.19;101947.97;4924835;29;20034;-76
2022/07/06 05:55:39;;;;;;;12.27;2.00;;;;;;;14.97;68.70;101950.94;4927920;29;20030;-75
2022/07/06 05:58:04;;;;;;;11.13;2.78;;;;;;;15.05;69.72;101945.53;4925738;29;20035;-75
2022/07/06 06:00:30;;;;;;;16.60;2.75;;;;;;;15.10;69.31;101957.69;4925718;29;20106;-75
2022/07/06 06:02:58;;;;;;;30.10;4.63;;;;;;;14.89;70.14;101949.03;4925956;29;20023;-73
2022/07/06 06:05:23;;;;;;;14.77;2.45;;;;;;;14.63;72.07;101959.91;4924445;29;20020;-76
2022/07/06 06:07:51;;;;;;;16.08;2.38;;;;;;;14.54;72.23;101949.94;4926093;29;20023;-78
2022/07/06 06:10:17;;;;;;;8.52;2.20;;;;;;;14.77;72.48;101956.63;4924932;29;20030;-77
2022/07/06 06:12:43;;;;;;;12.07;2.40;;;;;;;14.61;73.69;101956.50;4920122;29;20028;-78
2022/07/06 06:15:09;;;;;;;13.15;2.63;;;;;;;14.43;74.68;101963.81;4913520;29;20024;-76
2022/07/06 06:17:36;;;;;;;19.40;3.10;;;;;;;14.29;75.58;101957.91;4928068;29;20026;-76
2022/07/06 06:20:02;;;;;;;9.35;2.25;;;;;;;14.29;75.54;101957.91;4923357;29;20035;-76
2022/07/06 06:22:27;;;;;;;10.00;2.50;;;;;;;14.35;74.06;101964.59;4922310;29;20540;-76
2022/07/06 06:24:53;;;;;;;18.92;2.75;;;;;;;14.52;73.52;101962.88;4928098;29;20038;-78
2022/07/06 06:27:18;;;;;;;6.38;2.08;;;;;;;14.60;73.74;101958.34;4909599;29;20071;-75
2022/07/06 06:29:44;;;;;;;8.98;1.92;;;;;;;14.53;72.09;101960.00;4907692;29;20020;-73
2022/07/06 06:32:13;;;;;;;12.63;2.20;;;;;;;14.57;72.95;101964.13;4923602;29;20039;-73
2022/07/06 06:34:39;;;;;;;9.82;2.10;;;;;;;14.59;72.56;101958.50;4925086;29;20024;-73
2022/07/06 06:37:05;;;;;;;8.85;1.80;;;;;;;14.58;72.14;101962.25;4930497;29;20035;-76
2022/07/06 06:39:30;;;;;;;9.60;2.33;;;;;;;14.72;72.50;101963.56;4919526;29;20026;-76
2022/07/06 06:41:55;;;;;;;10.27;2.15;;;;;;;14.77;72.34;101964.78;4928336;29;20115;-76
2022/07/06 06:44:23;;;;;;;11.38;1.70;;;;;;;15.16;71.25;101967.09;4927263;29;20026;-75
2022/07/06 06:46:49;;;;;;;11.70;2.20;;;;;;;15.17;70.94;101960.63;4919302;29;20024;-73
2022/07/06 06:49:14;;;;;;;8.18;1.73;;;;;;;15.30;70.13;101971.09;4896761;29;20015;-74
2022/07/06 06:51:40;;;;;;;12.40;1.60;;;;;;;15.12;69.34;101971.16;4907702;29;20027;-75
2022/07/06 06:54:05;;;;;;;6.75;2.13;;;;;;;15.13;68.94;101972.88;4919147;29;20023;-76
2022/07/06 06:56:30;;;;;;;6.88;1.60;;;;;;;15.02;68.65;101981.34;4930965;29;20015;-75
2022/07/06 06:58:56;;;;;;;6.38;1.27;;;;;;;15.39;69.77;101979.19;4916337;29;20087;-73
2022/07/06 07:01:21;;;;;;;12.35;2.00;;;;;;;15.65;68.64;101973.69;4929823;29;20020;-74
2022/07/06 07:03:47;;;;;;;13.50;2.25;;;;;;;15.54;70.01;101987.59;4926724;29;20065;-74
2022/07/06 07:06:12;;;;;;;9.20;2.13;;;;;;;15.60;67.79;101986.09;4931375;29;20075;-76
2022/07/06 07:08:38;;;;;;;8.88;1.60;;;;;;;15.61;67.15;101982.34;4912418;29;20020;-74
2022/07/06 07:11:03;;;;;;;7.95;1.70;;;;;;;15.20;67.11;101977.53;4911880;29;20031;-74
2022/07/06 07:13:29;;;;;;;12.77;2.38;;;;;;;14.89;67.24;101988.06;4926537;29;20020;-74
2022/07/06 07:15:54;;;;;;;16.83;1.80;;;;;;;15.00;68.15;101988.84;4934884;29;20035;-73
2022/07/06 07:18:19;;;;;;;4.82;1.33;;;;;;;15.06;68.00;101979.97;4912920;29;20024;-76
2022/07/06 07:20:45;;;;;;;10.85;1.67;;;;;;;15.43;68.65;101988.72;4928348;29;20130;-75
2022/07/06 07:23:10;;;;;;;13.23;1.58;;;;;;;15.14;68.11;101991.81;4919418;29;20023;-73
2022/07/06 07:25:38;;;;;;;12.68;2.00;;;;;;;15.53;67.61;101994.09;4919640;29;20082;-72
2022/07/06 07:28:04;;;;;;;10.55;1.90;;;;;;;15.54;67.75;101993.06;4930064;29;20031;-75
2022/07/06 07:30:29;;;;;;;13.88;2.42;;;;;;;15.34;68.08;101997.91;4929273;29;20030;-73
2022/07/06 07:32:55;;;;;;;10.02;2.35;;;;;;;15.46;68.69;101995.75;4926008;29;20032;-74
2022/07/06 07:35:21;;;;;;;9.50;2.08;;;;;;;15.68;66.29;101988.88;4931338;29;20790;-73
2022/07/06 07:37:47;;;;;;;9.45;1.58;;;;;;;15.95;65.16;102002.28;4917194;29;20119;-77
2022/07/06 07:40:12;;;;;;;9.35;1.70;;;;;;;15.80;66.19;101998.50;4919547;29;20011;-76
2022/07/06 07:42:40;;;;;;;14.50;1.58;;;;;;;15.96;66.65;102004.00;4929181;29;20115;-72
2022/07/06 07:45:06;;;;;;;7.03;1.92;;;;;;;15.73;66.26;102013.84;4924214;29;20041;-78
2022/07/06 07:47:32;;;;;;;8.00;1.55;;;;;;;15.70;66.38;102003.22;4927742;29;20035;-74
2022/07/06 07:49:57;;;;;;;8.40;1.25;;;;;;;15.66;65.68;102007.31;4920160;29;20028;-73
2022/07/06 07:52:22;;;;;;;15.07;1.60;;;;;;;15.61;63.60;101998.72;4928875;29;20038;-75
2022/07/06 07:54:48;;;;;;;9.23;1.30;;;;;;;15.46;62.99;101995.75;4925095;29;20166;-74
2022/07/06 07:57:13;;;;;;;6.47;1.30;;;;;;;15.69;62.37;102012.44;4907245;29;20043;-74
2022/07/06 07:59:38;;;;;;;5.65;1.33;;;;;;;15.69;63.02;102001.50;4935277;29;20020;-73
2022/07/06 08:02:04;;;;;;;6.75;1.35;;;;;;;15.80;61.91;101998.50;4925166;29;20039;-72
2022/07/06 08:04:29;;;;;;;7.28;1.40;;;;;;;16.18;61.12;101997.06;4913023;29;20091;-74
2022/07/06 08:06:55;;;;;;;9.88;1.00;;;;;;;16.35;60.32;101991.63;4906713;29;20054;-72
2022/07/06 08:09:20;;;;;;;7.95;1.10;;;;;;;16.23;60.64;102002.88;4911191;29;20027;-75
2022/07/06 08:11:45;;;;;;;5.10;0.90;;;;;;;16.02;59.74;102003.34;4908160;29;20096;-72
2022/07/06 08:14:11;;;;;;;4.50;1.30;;;;;;;16.01;59.50;102009.81;4923562;29;20028;-71
2022/07/06 08:16:37;;;;;;;2.85;0.70;;;;;;;16.17;59.98;102006.31;4912982;29;20055;-76
2022/07/06 08:19:02;;;;;;;5.93;1.10;;;;;;;15.76;60.27;102013.47;4923927;29;20031;-73
2022/07/06 08:21:28;;;;;;;4.57;0.93;;;;;;;15.76;60.59;102013.47;4906078;29;20039;-75
2022/07/06 08:23:54;;;;;;;3.10;1.02;;;;;;;16.13;59.69;102004.06;4917458;29;20047;-73
2022/07/06 08:26:20;;;;;;;4.63;1.13;;;;;;;16.86;58.75;102004.16;4928310;29;20030;-71
2022/07/06 08:28:46;;;;;;;5.70;1.02;;;;;;;16.94;57.74;101998.66;4911615;29;20027;-75
2022/07/06 08:31:12;;;;;;;2.47;0.75;;;;;;;16.82;57.87;102005.50;4924865;29;20027;-77
2022/07/06 08:33:37;;;;;;;3.55;0.85;;;;;;;16.89;57.40;102011.16;4926255;29;20020;-74
2022/07/06 08:36:03;;;;;;;4.38;1.38;;;;;;;17.09;58.38;102002.44;4923967;29;20024;-74
2022/07/06 08:38:28;;;;;;;7.57;1.65;;;;;;;17.55;57.10;102002.66;4928108;28;21255;-71
2022/07/06 08:40:54;;;;;;;8.75;1.50;;;;;;;17.27;56.36;101998.59;4922043;29;20146;-74
2022/07/06 08:43:20;;;;;;;10.95;1.10;;;;;;;17.15;57.47;102000.00;4923220;29;20035;-75
2022/07/06 08:45:49;;;;;;;8.80;1.40;;;;;;;16.62;59.69;101998.66;4923688;29;20030;-76
2022/07/06 08:48:16;;;;;;;5.10;1.40;;;;;;;16.49;60.17;102001.88;4922385;29;20023;-77
2022/07/06 08:50:41;;;;;;;4.47;1.10;;;;;;;16.41;60.59;102013.66;4923239;29;20052;-72
2022/07/06 08:53:07;;;;;;;5.50;1.38;;;;;;;16.26;61.53;102009.88;4922163;29;20047;-73
2022/07/06 08:55:33;;;;;;;8.23;1.60;;;;;;;16.48;60.90;101998.28;4915070;29;20019;-76
2022/07/06 08:57:58;;;;;;;8.90;1.25;;;;;;;16.64;60.55;102007.56;4916891;29;20027;-72
2022/07/06 09:00:25;;;;;;;14.13;1.60;;;;;;;16.62;59.38;102009.59;4920347;29;20019;-75
2022/07/06 09:02:53;;;;;;;5.85;1.48;;;;;;;16.24;61.04;102012.81;4928048;28;20031;-72
2022/07/06 09:05:21;;;;;;;11.50;1.50;;;;;;;16.10;62.29;102018.03;4917851;29;20038;-72
2022/07/06 09:07:49;;;;;;;8.60;1.52;;;;;;;16.07;63.32;102026.59;4903065;29;20027;-73
2022/07/06 09:10:17;;;;;;;9.25;1.55;;;;;;;15.90;66.56;102021.03;4922831;29;20020;-72
2022/07/06 09:12:42;;;;;;;5.05;1.08;;;;;;;15.79;68.04;102025.97;4931031;29;20337;-72
2022/07/06 09:15:08;;;;;;;7.35;1.33;;;;;;;15.72;70.18;102033.97;4921326;29;20060;-75
2022/07/06 09:17:38;;;;;;;7.25;1.33;;;;;;;15.92;68.21;102027.22;4909134;29;20153;-75
2022/07/06 09:20:08;;;;;;;7.10;1.42;;;;;;;16.10;65.67;102031.69;4923670;29;20020;-74
2022/07/06 09:22:33;;;;;;;7.10;1.30;;;;;;;16.21;65.18;102039.59;4931288;29;20147;-72
2022/07/06 09:25:07;;;;;;;4.93;1.30;;;;;;;16.24;64.21;102039.28;4922294;29;20043;-74
2022/07/06 09:27:47;;;;;;;5.13;0.80;;;;;;;16.43;61.13;102044.44;4923598;29;20040;-75
2022/07/06 09:30:14;;;;;;;3.50;0.95;;;;;;;16.66;61.67;102038.31;4916601;29;20107;-74
2022/07/06 09:32:44;;;;;;;2.78;0.90;;;;;;;16.90;58.88;102041.09;4921475;29;20059;-73
2022/07/06 09:35:21;;;;;;;2.45;0.85;;;;;;;17.55;57.64;102034.66;4905833;29;20377;-74
2022/07/06 09:37:47;;;;;;;6.57;1.13;;;;;;;17.62;55.91;102039.25;4905549;29;20075;-72
2022/07/06 09:40:19;;;;;;;6.63;1.05;;;;;;;17.17;56.47;102039.03;4917876;29;20030;-72
2022/07/06 09:42:45;;;;;;;;;;;;;;;17.24;54.97;102040.03;4923065;29;20023;-73
2022/07/06 09:45:11;;;;;;;2.40;0.55;;;;;;;17.05;56.31;102042.09;4920262;29;19918;-74
2022/07/06 09:47:37;;;;;;;7.78;0.93;;;;;;;17.32;55.00;102034.53;4927988;29;20045;-71
2022/07/06 09:50:06;;;;;;;3.60;0.85;;;;;;;16.91;55.17;102036.47;4928775;29;20023;-74
2022/07/06 09:52:35;;;;;;;3.35;1.05;;;;;;;17.01;55.24;102040.72;4927313;29;20063;-75
2022/07/06 09:55:05;;;;;;;2.22;1.00;;;;;;;17.06;55.53;102037.47;4907707;29;20032;-73
2022/07/06 09:57:30;;;;;;;7.47;1.17;;;;;;;17.24;55.22;102037.28;4913548;29;20030;-73
2022/07/06 09:59:58;;;;;;;3.00;1.00;;;;;;;17.47;55.30;102019.09;4920730;29;20019;-73
2022/07/06 10:02:26;;;;;;;3.45;1.10;;;;;;;17.90;53.54;102033.34;4905523;29;20048;-75
2022/07/06 10:04:53;;;;;;;5.93;1.30;;;;;;;18.05;53.38;102026.06;4920419;29;20031;-74
2022/07/06 10:07:18;;;;;;;3.22;1.00;;;;;;;18.43;53.65;102029.78;4923189;29;20041;-75
2022/07/06 10:09:46;;;;;;;5.20;1.13;;;;;;;18.81;51.89;102020.81;4925136;29;20535;-75
2022/07/06 10:12:14;;;;;;;8.18;2.65;;;;;;;18.90;51.70;102016.94;4906830;29;20016;-72
2022/07/06 10:14:40;;;;;;;5.43;1.17;;;;;;;19.55;49.23;102029.16;4920502;29;20238;-75
2022/07/06 10:17:06;;;;;;;5.03;1.30;;;;;;;18.91;51.02;102011.28;4906335;29;20120;-75
2022/07/06 10:19:32;;;;;;;5.18;1.67;;;;;;;18.76;51.58;102023.25;4910814;29;20019;-73
2022/07/06 10:22:00;;;;;;;16.85;1.35;;;;;;;18.03;53.58;102025.41;4922427;29;20024;-73
2022/07/06 10:24:28;;;;;;;4.03;0.90;;;;;;;17.70;54.18;102026.56;4922183;29;20043;-72
2022/07/06 10:26:54;;;;;;;5.75;1.30;;;;;;;17.07;56.07;102023.63;4921113;29;20026;-72
2022/07/06 10:29:20;;;;;;;14.00;1.67;;;;;;;16.93;57.76;102034.41;4926289;29;20038;-75
2022/07/06 10:31:47;;;;;;;7.55;1.27;;;;;;;16.65;57.46;102025.66;4909181;29;20480;-73
2022/07/06 10:34:15;;;;;;;5.30;1.08;;;;;;;16.55;58.56;102043.06;4909710;29;20246;-72
2022/07/06 10:36:43;;;;;;;3.65;0.95;;;;;;;16.28;59.32;102046.94;4929291;29;20030;-75
2022/07/06 10:41:55;;;;;;;4.63;0.88;;;;;;;15.93;59.43;102048.06;4917842;29;20461;-76
2022/07/06 10:44:22;;;;;;;3.95;1.35;;;;;;;15.86;58.50;102041.53;4905343;29;20118;-71
2022/07/06 10:46:58;;;;;;;3.42;1.20;;;;;;;15.78;57.26;102041.50;4919866;29;20481;-75
2022/07/06 10:49:27;;;;;;;3.63;0.80;;;;;;;15.82;58.14;102039.28;4919759;29;20026;-78
2022/07/06 10:51:52;;;;;;;3.03;0.73;;;;;;;15.80;56.94;102035.88;4920671;29;20020;-75
2022/07/06 10:54:19;;;;;;;3.00;0.57;;;;;;;15.73;57.26;102036.53;4905480;29;20077;-72
2022/07/06 10:56:48;;;;;;;6.70;1.35;;;;;;;15.64;56.59;102036.63;4923286;29;20403;-75
2022/07/06 10:59:14;;;;;;;12.32;0.82;;;;;;;15.62;57.09;102038.69;4914103;29;20080;-75
2022/07/06 11:01:40;;;;;;;5.50;0.90;;;;;;;15.95;56.52;102028.75;4920322;29;20020;-72
2022/07/06 11:04:07;;;;;;;6.78;1.20;;;;;;;16.01;56.58;102028.09;4919699;29;20029;-72
2022/07/06 11:06:45;;;;;;;6.85;1.23;;;;;;;15.92;58.16;102019.03;4920655;29;20028;-75
2022/07/06 11:09:11;;;;;;;11.73;1.17;;;;;;;15.94;58.36;102021.59;4933117;29;20028;-72
2022/07/06 11:11:36;;;;;;;5.32;0.93;;;;;;;16.25;57.47;102021.84;4920288;29;20072;-75
2022/07/06 11:14:10;;;;;;;6.03;1.35;;;;;;;16.20;56.94;102016.03;4921359;29;20039;-73
2022/07/06 11:16:39;;;;;;;6.22;1.40;;;;;;;15.99;57.81;102021.94;4907252;29;20036;-73
2022/07/06 11:19:05;;;;;;;7.47;1.52;;;;;;;16.23;57.92;102023.88;4920521;29;20118;-71
2022/07/06 11:21:44;;;;;;;10.82;1.45;;;;;;;16.78;56.98;102031.50;4919827;29;20111;-74
2022/07/06 11:24:13;;;;;;;6.57;1.70;;;;;;;16.76;57.19;102023.50;4924263;29;20024;-75
2022/07/06 11:26:40;;;;;;;6.32;1.77;;;;;;;17.30;56.20;102014.69;4920471;29;20035;-77
2022/07/06 11:29:08;;;;;;;13.60;2.42;;;;;;;17.98;54.36;102014.13;4917154;29;20139;-72